createdAt,value
2022-07-27T00:01:18.232Z,24.60
2022-07-27T00:03:47.097Z,25.65
2022-07-27T00:06:15.845Z,31.70
2022-07-27T00:08:43.925Z,41.33
2022-07-27T00:11:13.926Z,30.88
2022-07-27T00:13:42.871Z,44.85
2022-07-27T00:16:11.075Z,46.67
2022-07-27T00:18:39.834Z,33.08
2022-07-27T00:21:08.628Z,29.33
2022-07-27T00:23:36.595Z,38.25
2022-07-27T00:26:04.587Z,41.85
2022-07-27T00:28:33.464Z,28.42
2022-07-27T00:31:01.536Z,34.83
2022-07-27T00:33:29.611Z,32.38
2022-07-27T00:35:58.039Z,40.95
2022-07-27T00:38:26.251Z,27.42
2022-07-27T00:40:54.388Z,44.63
2022-07-27T00:43:23.246Z,46.13
2022-07-27T00:45:51.652Z,72.10
2022-07-27T00:48:19.748Z,65.22
2022-07-27T00:50:48.688Z,50.38
2022-07-27T00:53:17.074Z,48.28
2022-07-27T00:55:45.821Z,44.65
2022-07-27T00:58:14.711Z,43.15
2022-07-27T01:00:43.325Z,38.00
2022-07-27T01:03:11.507Z,33.67
2022-07-27T01:05:42.503Z,37.67
2022-07-27T01:08:14.282Z,48.37
2022-07-27T01:10:44.851Z,28.38
2022-07-27T01:13:15.715Z,31.20
2022-07-27T01:15:44.536Z,31.45
2022-07-27T01:18:36.194Z,38.92
2022-07-27T01:21:09.092Z,34.63
2022-07-27T01:23:37.192Z,35.13
2022-07-27T01:26:07.951Z,32.13
2022-07-27T01:28:35.939Z,26.90
2022-07-27T01:31:04.133Z,31.00
2022-07-27T01:33:32.335Z,52.20
2022-07-27T01:36:00.312Z,33.33
2022-07-27T01:38:28.520Z,31.08
2022-07-27T01:40:56.912Z,42.08
2022-07-27T01:43:25.288Z,40.45
2022-07-27T01:45:53.503Z,27.83
2022-07-27T01:48:22.279Z,42.78
2022-07-27T01:50:51.478Z,30.55
2022-07-27T01:53:21.522Z,25.20
2022-07-27T01:55:51.507Z,39.22
2022-07-27T01:58:19.805Z,40.40
2022-07-27T02:00:49.693Z,28.52
2022-07-27T02:03:17.903Z,29.90
2022-07-27T02:05:46.182Z,32.67
2022-07-27T02:08:14.408Z,31.42
2022-07-27T02:11:02.933Z,30.40
2022-07-27T02:13:30.984Z,30.45
2022-07-27T02:15:59.172Z,31.48
2022-07-27T02:18:36.248Z,33.63
2022-07-27T02:21:06.678Z,23.23
2022-07-27T02:23:35.645Z,30.15
2022-07-27T02:26:06.836Z,29.50
2022-07-27T02:28:36.778Z,28.95
2022-07-27T02:31:05.404Z,32.97
2022-07-27T02:33:33.988Z,28.00
2022-07-27T02:36:02.137Z,31.92
2022-07-27T02:38:30.154Z,27.45
2022-07-27T02:40:58.282Z,32.97
2022-07-27T02:43:27.150Z,33.75
2022-07-27T02:45:55.371Z,28.77
2022-07-27T02:48:23.722Z,25.88
2022-07-27T02:50:52.018Z,11.35
2022-07-27T02:53:20.503Z,22.50
2022-07-27T02:55:48.836Z,9.32
2022-07-27T02:58:17.339Z,20.42
2022-07-27T03:00:45.472Z,11.73
2022-07-27T03:03:14.105Z,8.50
2022-07-27T03:05:43.112Z,5.57
2022-07-27T03:08:11.555Z,5.70
2022-07-27T03:10:39.874Z,8.38
2022-07-27T03:13:08.334Z,6.47
2022-07-27T03:15:36.522Z,8.65
2022-07-27T03:18:05.119Z,9.10
2022-07-27T03:20:33.651Z,21.58
2022-07-27T03:23:01.918Z,16.50
2022-07-27T03:25:30.045Z,20.40
2022-07-27T03:28:03.531Z,16.50
2022-07-27T03:30:33.270Z,22.02
2022-07-27T03:33:01.580Z,28.08
2022-07-27T03:35:29.729Z,20.77
2022-07-27T03:37:57.877Z,17.42
2022-07-27T03:40:26.139Z,20.60
2022-07-27T03:42:54.651Z,21.73
2022-07-27T03:45:23.258Z,20.80
2022-07-27T03:47:51.662Z,21.80
2022-07-27T03:50:20.976Z,24.58
2022-07-27T03:52:49.216Z,22.83
2022-07-27T03:55:17.536Z,24.17
2022-07-27T03:57:45.804Z,35.78
2022-07-27T04:00:15.949Z,29.33
2022-07-27T04:02:44.377Z,30.05
2022-07-27T04:05:12.634Z,32.28
2022-07-27T04:07:40.977Z,27.45
2022-07-27T04:10:11.032Z,36.90
2022-07-27T04:12:40.024Z,37.08
2022-07-27T04:15:10.536Z,30.73
2022-07-27T04:17:56.264Z,34.33
2022-07-27T04:20:27.030Z,31.42
2022-07-27T04:22:56.307Z,32.60
2022-07-27T04:25:24.376Z,30.98
2022-07-27T04:27:54.818Z,29.48
2022-07-27T04:30:24.171Z,31.30
2022-07-27T04:32:52.668Z,28.15
2022-07-27T04:35:25.873Z,34.47
2022-07-27T04:37:59.023Z,27.08
2022-07-27T04:40:32.987Z,32.58
2022-07-27T04:43:04.085Z,29.42
2022-07-27T04:45:32.803Z,39.78
2022-07-27T04:48:08.587Z,33.28
2022-07-27T04:50:45.083Z,35.30
2022-07-27T04:53:14.921Z,32.28
2022-07-27T04:55:47.470Z,31.70
2022-07-27T04:58:16.461Z,31.23
2022-07-27T05:00:44.991Z,33.13
2022-07-27T05:03:13.112Z,41.75
2022-07-27T05:05:49.583Z,37.75
2022-07-27T05:08:19.033Z,36.35
2022-07-27T05:10:47.859Z,36.17
2022-07-27T05:13:15.825Z,37.67
2022-07-27T05:15:54.951Z,41.58
2022-07-27T05:18:25.775Z,43.42
2022-07-27T05:20:54.251Z,37.33
2022-07-27T05:23:22.193Z,42.38
2022-07-27T05:25:50.176Z,46.42
2022-07-27T05:28:18.330Z,38.33
2022-07-27T05:30:46.269Z,48.25
2022-07-27T05:33:14.630Z,52.45
2022-07-27T05:35:42.961Z,48.17
2022-07-27T05:38:10.996Z,49.25
2022-07-27T05:40:38.992Z,51.45
2022-07-27T05:43:07.042Z,62.95
2022-07-27T05:45:35.036Z,66.97
2022-07-27T05:48:03.180Z,58.70
2022-07-27T05:50:31.297Z,57.10
2022-07-27T05:53:00.781Z,61.92
2022-07-27T05:55:28.972Z,59.85
2022-07-27T05:57:57.864Z,67.38
2022-07-27T06:00:25.976Z,64.00
2022-07-27T06:02:54.994Z,66.13
2022-07-27T06:05:23.162Z,63.25
2022-07-27T06:08:00.455Z,70.78
2022-07-27T06:10:30.936Z,60.80
2022-07-27T06:13:00.470Z,63.83
2022-07-27T06:15:28.541Z,63.95
2022-07-27T06:17:56.878Z,61.08
2022-07-27T06:20:25.651Z,67.07
2022-07-27T06:22:59.387Z,52.65
2022-07-27T06:25:34.573Z,58.00
2022-07-27T06:28:05.965Z,52.40
2022-07-27T06:30:34.676Z,48.15
2022-07-27T06:33:06.043Z,49.25
2022-07-27T06:35:37.959Z,43.70
2022-07-27T06:38:08.878Z,40.97
2022-07-27T06:40:37.327Z,41.70
2022-07-27T06:43:05.310Z,41.95
2022-07-27T06:45:33.654Z,33.55
2022-07-27T06:48:02.038Z,39.05
2022-07-27T06:50:30.392Z,30.27
2022-07-27T06:52:58.415Z,28.45
2022-07-27T06:55:26.938Z,29.98
2022-07-27T06:57:55.444Z,31.50
2022-07-27T07:00:23.535Z,34.15
2022-07-27T07:03:05.085Z,35.08
2022-07-27T07:05:38.566Z,35.65
2022-07-27T07:08:11.758Z,38.08
2022-07-27T07:10:44.812Z,40.67
2022-07-27T07:13:13.671Z,36.47
2022-07-27T07:15:43.493Z,32.30
2022-07-27T07:18:12.910Z,35.65
2022-07-27T07:20:43.227Z,37.30
2022-07-27T07:23:12.253Z,36.05
2022-07-27T07:25:41.973Z,36.38
2022-07-27T07:28:10.227Z,37.45
2022-07-27T07:30:38.219Z,37.92
2022-07-27T07:33:06.375Z,38.22
2022-07-27T07:35:34.826Z,37.33
2022-07-27T07:38:02.836Z,37.58
2022-07-27T07:40:46.939Z,42.20
2022-07-27T07:43:15.290Z,45.53
2022-07-27T07:45:50.651Z,46.95
2022-07-27T07:48:23.406Z,35.63
2022-07-27T07:53:25.616Z,34.58
2022-07-27T07:55:56.926Z,33.00
2022-07-27T07:58:25.206Z,31.85
2022-07-27T08:00:53.877Z,28.52
2022-07-27T08:03:22.235Z,30.98
2022-07-27T08:05:50.587Z,33.38
2022-07-27T08:08:18.929Z,31.13
2022-07-27T08:10:47.955Z,29.45
2022-07-27T08:13:21.489Z,34.20
2022-07-27T08:15:52.736Z,36.70
2022-07-27T08:18:21.498Z,33.20
2022-07-27T08:20:49.816Z,29.17
2022-07-27T08:23:18.565Z,27.00
2022-07-27T08:25:47.458Z,24.55
2022-07-27T08:28:15.850Z,24.50
2022-07-27T08:30:44.467Z,19.95
2022-07-27T08:33:13.041Z,19.60
2022-07-27T08:35:41.779Z,20.23
2022-07-27T08:38:10.147Z,17.80
2022-07-27T08:40:42.544Z,21.48
2022-07-27T08:43:21.948Z,21.50
2022-07-27T08:45:59.664Z,21.00
2022-07-27T08:48:32.092Z,16.15
2022-07-27T08:51:00.226Z,19.38
2022-07-27T08:53:34.220Z,12.23
2022-07-27T08:56:22.018Z,13.55
2022-07-27T08:58:50.670Z,16.17
2022-07-27T09:01:19.106Z,13.30
2022-07-27T09:03:49.605Z,15.00
2022-07-27T09:06:44.822Z,11.02
2022-07-27T09:09:23.051Z,11.32
2022-07-27T09:12:06.659Z,10.80
2022-07-27T09:14:37.647Z,9.10
2022-07-27T09:20:20.490Z,11.35
2022-07-27T09:22:57.293Z,6.50
2022-07-27T09:28:31.250Z,12.85
2022-07-27T09:31:11.478Z,8.07
2022-07-27T09:33:52.076Z,9.32
2022-07-27T09:36:23.523Z,13.18
2022-07-27T09:41:51.233Z,10.32
2022-07-27T09:44:34.795Z,10.15
2022-07-27T09:47:27.723Z,8.48
2022-07-27T09:50:17.691Z,5.47
2022-07-27T09:52:47.352Z,5.97
2022-07-27T09:55:19.777Z,8.85
2022-07-27T09:57:59.330Z,5.43
2022-07-27T10:00:27.719Z,7.25
2022-07-27T10:02:56.486Z,3.85
2022-07-27T10:05:24.897Z,4.90
2022-07-27T10:07:55.227Z,4.93
2022-07-27T10:10:24.737Z,3.50
2022-07-27T10:12:55.133Z,10.48
2022-07-27T10:15:25.183Z,5.45
2022-07-27T10:18:13.056Z,3.20
2022-07-27T10:20:47.558Z,6.25
2022-07-27T10:23:29.928Z,3.33
2022-07-27T10:26:27.640Z,5.55
2022-07-27T10:29:02.795Z,2.85
2022-07-27T10:31:34.969Z,4.28
2022-07-27T10:34:07.378Z,7.88
2022-07-27T10:36:35.347Z,2.90
2022-07-27T10:39:07.322Z,5.78
2022-07-27T10:41:41.741Z,3.08
2022-07-27T10:44:17.715Z,3.28
2022-07-27T10:46:53.882Z,4.82
2022-07-27T10:49:25.613Z,5.82
2022-07-27T10:51:55.476Z,5.07
2022-07-27T10:54:27.412Z,4.22
2022-07-27T10:56:58.659Z,3.10
2022-07-27T11:02:43.233Z,5.65
2022-07-27T11:05:32.849Z,4.07
2022-07-27T11:10:49.186Z,8.38
2022-07-27T11:13:20.205Z,4.82
2022-07-27T11:16:22.554Z,3.60
2022-07-27T11:18:59.661Z,4.13
2022-07-27T11:21:38.030Z,6.72
2022-07-27T11:24:17.049Z,3.97
2022-07-27T11:26:49.571Z,4.20
2022-07-27T11:29:21.062Z,5.68
2022-07-27T11:34:36.948Z,8.52
2022-07-27T11:37:19.201Z,3.67
2022-07-27T11:40:27.807Z,4.75
2022-07-27T11:42:40.414Z,4.80
2022-07-27T11:45:09.276Z,3.05
2022-07-27T11:47:37.339Z,3.08
2022-07-27T11:50:07.965Z,4.38
2022-07-27T11:52:36.467Z,7.05
2022-07-27T11:55:05.137Z,3.35
2022-07-27T11:57:35.209Z,4.07
2022-07-27T12:00:04.620Z,9.35
2022-07-27T12:02:52.329Z,4.68
2022-07-27T12:05:20.951Z,2.45
2022-07-27T12:07:49.211Z,2.35
2022-07-27T12:10:18.606Z,1.90
2022-07-27T12:12:49.876Z,2.53
2022-07-27T12:18:08.119Z,2.38
2022-07-27T12:20:37.452Z,2.53
2022-07-27T12:23:09.795Z,2.95
2022-07-27T12:25:39.229Z,4.97
2022-07-27T12:28:11.428Z,3.55
2022-07-27T12:30:50.726Z,3.58
2022-07-27T12:33:38.818Z,6.20
2022-07-27T12:36:09.105Z,4.07
2022-07-27T12:38:50.686Z,3.60
2022-07-27T12:41:35.502Z,3.53
2022-07-27T12:44:17.333Z,2.95
2022-07-27T12:47:02.549Z,3.72
2022-07-27T12:49:35.078Z,6.40
2022-07-27T12:52:10.945Z,2.47
2022-07-27T12:54:39.234Z,3.00
2022-07-27T12:57:07.242Z,4.45
2022-07-27T12:59:35.347Z,6.18
2022-07-27T13:02:03.786Z,2.38
2022-07-27T13:04:31.866Z,4.65
2022-07-27T13:06:59.885Z,3.50
2022-07-27T13:10:01.992Z,3.60
2022-07-27T13:12:16.614Z,3.95
2022-07-27T13:14:44.859Z,2.67
2022-07-27T13:17:12.850Z,3.38
2022-07-27T13:19:45.185Z,3.95
2022-07-27T13:22:13.612Z,3.63
2022-07-27T13:24:41.944Z,2.60
2022-07-27T13:27:10.177Z,5.95
2022-07-27T13:29:38.419Z,4.35
2022-07-27T13:32:07.513Z,4.50
2022-07-27T13:34:35.777Z,5.32
2022-07-27T13:37:04.273Z,7.13
2022-07-27T13:39:34.363Z,4.07
2022-07-27T13:42:02.492Z,3.53
2022-07-27T13:44:59.278Z,7.05
2022-07-27T13:47:19.094Z,2.60
2022-07-27T13:49:47.585Z,4.50
2022-07-27T13:52:15.569Z,2.45
2022-07-27T13:54:43.675Z,3.65
2022-07-27T13:57:12.086Z,4.25
2022-07-27T13:59:40.199Z,8.57
2022-07-27T14:02:08.899Z,3.92
2022-07-27T14:04:38.178Z,4.03
2022-07-27T14:07:08.791Z,2.35
2022-07-27T14:09:55.682Z,3.72
2022-07-27T14:12:23.890Z,2.03
2022-07-27T14:14:51.855Z,2.72
2022-07-27T14:17:20.220Z,3.15
2022-07-27T14:19:49.160Z,2.72
2022-07-27T14:22:17.164Z,3.50
2022-07-27T14:24:45.403Z,5.47
2022-07-27T14:27:13.783Z,4.65
2022-07-27T14:29:41.893Z,2.72
2022-07-27T14:32:10.296Z,3.95
2022-07-27T14:34:39.519Z,2.70
2022-07-27T14:37:07.824Z,3.90
2022-07-27T14:39:36.307Z,5.00
2022-07-27T14:42:04.685Z,4.38
2022-07-27T14:44:34.957Z,5.55
2022-07-27T14:47:03.275Z,5.63
2022-07-27T14:49:31.438Z,2.70
2022-07-27T14:51:59.659Z,2.72
2022-07-27T14:54:28.016Z,3.22
2022-07-27T14:56:57.679Z,4.40
2022-07-27T14:59:25.917Z,4.60
2022-07-27T15:01:54.474Z,5.25
2022-07-27T15:04:22.947Z,2.92
2022-07-27T15:06:51.867Z,5.70
2022-07-27T15:09:20.905Z,3.60
2022-07-27T15:11:50.711Z,2.27
2022-07-27T15:14:20.702Z,3.38
2022-07-27T15:16:49.654Z,2.17
2022-07-27T15:19:19.890Z,3.38
2022-07-27T15:21:48.759Z,7.07
2022-07-27T15:24:17.479Z,2.15
2022-07-27T15:26:45.725Z,4.07
2022-07-27T15:29:14.968Z,8.07
2022-07-27T15:31:44.363Z,3.90
2022-07-27T15:34:12.593Z,3.85
2022-07-27T15:36:45.900Z,3.92
2022-07-27T15:39:21.087Z,5.07
2022-07-27T15:41:50.248Z,3.05
2022-07-27T15:44:22.505Z,3.25
2022-07-27T15:46:50.588Z,1.98
2022-07-27T15:49:19.059Z,3.42
2022-07-27T15:51:48.506Z,2.80
2022-07-27T15:54:16.631Z,4.57
2022-07-27T15:56:44.787Z,2.65
2022-07-27T15:59:13.956Z,3.95
2022-07-27T16:01:43.329Z,4.82
2022-07-27T16:04:12.762Z,2.47
2022-07-27T16:06:41.821Z,3.85
2022-07-27T16:09:10.413Z,3.67
2022-07-27T16:11:39.336Z,3.80
2022-07-27T16:14:07.561Z,5.10
2022-07-27T16:16:35.967Z,7.85
2022-07-27T16:19:12.377Z,4.80
2022-07-27T16:21:54.118Z,3.65
2022-07-27T16:24:26.758Z,8.57
2022-07-27T16:26:55.036Z,4.07
2022-07-27T16:29:23.638Z,3.25
2022-07-27T16:31:55.105Z,4.47
2022-07-27T16:34:23.250Z,3.83
2022-07-27T16:36:51.448Z,2.35
2022-07-27T16:39:20.007Z,6.15
2022-07-27T16:41:50.029Z,3.95
2022-07-27T16:44:20.743Z,5.72
2022-07-27T16:46:49.089Z,3.15
2022-07-27T16:49:18.740Z,4.95
2022-07-27T16:51:48.165Z,2.92
2022-07-27T16:54:16.931Z,6.38
2022-07-27T16:56:45.031Z,2.20
2022-07-27T16:59:13.339Z,4.03
2022-07-27T17:01:42.163Z,2.47
2022-07-27T17:04:10.449Z,2.83
2022-07-27T17:06:38.830Z,6.07
2022-07-27T17:09:07.233Z,5.85
2022-07-27T17:11:37.228Z,4.35
2022-07-27T17:14:07.235Z,2.15
2022-07-27T17:16:36.533Z,5.88
2022-07-27T17:19:04.894Z,4.38
2022-07-27T17:21:33.167Z,2.72
2022-07-27T17:24:01.254Z,6.78
2022-07-27T17:26:29.530Z,5.32
2022-07-27T17:28:57.773Z,3.45
2022-07-27T17:31:26.567Z,2.97
2022-07-27T17:33:55.509Z,2.15
2022-07-27T17:36:25.507Z,3.90
2022-07-27T17:38:53.971Z,3.92
2022-07-27T17:41:24.841Z,6.22
2022-07-27T17:43:54.799Z,4.65
2022-07-27T17:46:25.030Z,4.63
2022-07-27T17:48:54.473Z,3.28
2022-07-27T17:51:25.458Z,3.50
2022-07-27T17:53:54.338Z,4.95
2022-07-27T17:56:22.346Z,4.68
2022-07-27T17:58:51.020Z,3.20
2022-07-27T18:01:46.294Z,4.13
2022-07-27T18:04:08.218Z,5.10
2022-07-27T18:06:36.489Z,9.68
2022-07-27T18:09:06.884Z,5.32
2022-07-27T18:11:35.716Z,4.57
2022-07-27T18:14:03.891Z,3.63
2022-07-27T18:16:36.608Z,5.53
2022-07-27T18:19:08.928Z,5.78
2022-07-27T18:21:37.517Z,6.78
2022-07-27T18:24:06.321Z,9.98
2022-07-27T18:26:35.722Z,6.80
2022-07-27T18:29:04.476Z,8.90
2022-07-27T18:31:32.747Z,3.22
2022-07-27T18:34:03.536Z,10.93
2022-07-27T18:36:34.377Z,10.05
2022-07-27T18:39:02.668Z,5.05
2022-07-27T18:41:31.251Z,5.32
2022-07-27T18:43:59.399Z,4.88
2022-07-27T18:46:28.362Z,4.40
2022-07-27T18:48:57.121Z,8.88
2022-07-27T18:51:25.379Z,9.80
2022-07-27T18:53:53.696Z,16.05
2022-07-27T18:56:22.150Z,3.85
2022-07-27T18:58:50.411Z,5.68
2022-07-27T19:01:18.903Z,6.70
2022-07-27T19:03:47.485Z,3.75
2022-07-27T19:06:17.877Z,5.78
2022-07-27T19:08:47.027Z,6.25
2022-07-27T19:11:15.590Z,6.78
2022-07-27T19:13:45.777Z,5.10
2022-07-27T19:16:13.931Z,6.28
2022-07-27T19:18:44.011Z,5.18
2022-07-27T19:21:12.258Z,9.43
2022-07-27T19:23:40.661Z,11.88
2022-07-27T19:26:10.548Z,7.50
2022-07-27T19:28:38.820Z,5.35
2022-07-27T19:31:22.751Z,7.47
2022-07-27T19:33:53.038Z,7.95
2022-07-27T19:36:23.365Z,8.30
2022-07-27T19:38:52.117Z,6.72
2022-07-27T19:41:21.008Z,10.27
2022-07-27T19:43:50.107Z,6.05
2022-07-27T19:46:18.260Z,8.80
2022-07-27T19:48:46.850Z,8.10
2022-07-27T19:51:16.034Z,8.65
2022-07-27T19:53:44.507Z,9.57
2022-07-27T19:56:16.102Z,10.40
2022-07-27T19:58:44.495Z,8.18
2022-07-27T20:01:13.566Z,7.28
2022-07-27T20:03:52.083Z,19.77
2022-07-27T20:06:26.705Z,13.55
2022-07-27T20:09:08.998Z,7.50
2022-07-27T20:11:37.455Z,7.25
2022-07-27T20:14:05.741Z,8.25
2022-07-27T20:16:34.434Z,9.40
2022-07-27T20:19:02.854Z,10.55
2022-07-27T20:21:33.862Z,11.80
2022-07-27T20:24:03.438Z,10.73
2022-07-27T20:26:32.053Z,13.27
2022-07-27T20:29:00.704Z,12.50
2022-07-27T20:31:28.954Z,13.27
2022-07-27T20:33:58.015Z,12.70
2022-07-27T20:36:30.599Z,10.13
2022-07-27T20:39:00.188Z,16.30
2022-07-27T20:41:28.259Z,12.02
2022-07-27T20:43:56.633Z,11.32
2022-07-27T20:46:25.175Z,11.68
2022-07-27T20:48:53.390Z,9.55
2022-07-27T20:51:21.717Z,9.15
2022-07-27T20:53:50.507Z,10.10
2022-07-27T20:56:18.929Z,10.07
2022-07-27T20:58:48.677Z,9.65
2022-07-27T21:01:16.718Z,17.95
2022-07-27T21:03:45.221Z,12.25
2022-07-27T21:06:13.645Z,11.18
2022-07-27T21:08:46.592Z,10.13
2022-07-27T21:11:15.331Z,9.13
2022-07-27T21:13:43.649Z,9.55
2022-07-27T21:16:11.726Z,8.80
2022-07-27T21:18:40.009Z,12.73
2022-07-27T21:21:08.053Z,15.10
2022-07-27T21:23:55.248Z,11.95
2022-07-27T21:26:23.501Z,12.50
2022-07-27T21:28:51.908Z,12.48
2022-07-27T21:31:21.299Z,8.20
2022-07-27T21:33:49.901Z,10.50
2022-07-27T21:36:18.022Z,10.25
2022-07-27T21:38:46.101Z,7.80
2022-07-27T21:41:15.730Z,9.77
2022-07-27T21:43:43.935Z,9.80
2022-07-27T21:46:12.169Z,9.27
2022-07-27T21:48:40.390Z,10.30
2022-07-27T21:51:08.924Z,9.13
2022-07-27T21:53:36.997Z,8.80
2022-07-27T21:56:05.985Z,12.23
2022-07-27T21:58:33.896Z,11.02
2022-07-27T22:01:02.182Z,7.82
2022-07-27T22:03:30.768Z,8.65
2022-07-27T22:05:59.329Z,8.02
2022-07-27T22:08:27.647Z,7.75
2022-07-27T22:10:55.738Z,9.52
2022-07-27T22:13:23.732Z,7.38
2022-07-27T22:15:52.010Z,6.60
2022-07-27T22:18:21.023Z,6.88
2022-07-27T22:20:49.408Z,8.52
2022-07-27T22:23:17.618Z,7.07
2022-07-27T22:25:46.081Z,8.48
2022-07-27T22:28:14.040Z,4.85
2022-07-27T22:30:42.457Z,5.47
2022-07-27T22:33:10.666Z,6.75
2022-07-27T22:35:39.146Z,7.03
2022-07-27T22:38:07.546Z,8.23
2022-07-27T22:40:35.555Z,9.32
2022-07-27T22:43:03.533Z,13.43
2022-07-27T22:45:31.678Z,6.40
2022-07-27T22:48:00.317Z,7.43
2022-07-27T22:50:28.481Z,8.30
2022-07-27T22:52:57.816Z,9.15
2022-07-27T22:55:26.143Z,9.95
2022-07-27T22:57:54.118Z,10.65
2022-07-27T23:00:22.376Z,5.80
2022-07-27T23:02:50.627Z,5.75
2022-07-27T23:05:18.775Z,8.02
2022-07-27T23:07:47.255Z,8.93
2022-07-27T23:10:33.779Z,6.90
2022-07-27T23:13:01.929Z,9.38
2022-07-27T23:15:31.147Z,6.28
2022-07-27T23:17:59.601Z,7.72
2022-07-27T23:20:27.672Z,5.93
2022-07-27T23:22:55.968Z,6.70
2022-07-27T23:25:35.211Z,9.05
2022-07-27T23:28:06.184Z,9.38
2022-07-27T23:30:34.526Z,7.25
2022-07-27T23:33:02.665Z,7.38
2022-07-27T23:35:31.572Z,11.75
2022-07-27T23:37:59.762Z,8.45
2022-07-27T23:40:28.260Z,6.05
2022-07-27T23:42:56.523Z,5.07
2022-07-27T23:45:24.584Z,7.10
2022-07-27T23:47:52.681Z,5.88
2022-07-27T23:50:20.928Z,7.75
2022-07-27T23:52:49.030Z,6.05
2022-07-27T23:55:18.094Z,12.05
2022-07-27T23:57:47.307Z,8.90
